sensor_id;sensor_type;location;lat;lon;timestamp;pressure;altitude;pressure_sealevel;temperature;humidity
48216;BME280;34005;48.844;10.098;2022-12-18T00:01:21;97718.25;;;-5.15;66.59
48216;BME280;34005;48.844;10.098;2022-12-18T00:03:49;97716.94;;;-5.25;66.22
48216;BME280;34005;48.844;10.098;2022-12-18T00:06:18;97718.09;;;-5.34;66.32
48216;BME280;34005;48.844;10.098;2022-12-18T00:08:46;97725.91;;;-5.39;66.71
48216;BME280;34005;48.844;10.098;2022-12-18T00:11:18;97723.53;;;-5.43;66.68
48216;BME280;34005;48.844;10.098;2022-12-18T00:13:46;97728.81;;;-5.49;66.70
48216;BME280;34005;48.844;10.098;2022-12-18T00:16:15;97732.47;;;-5.56;66.49
48216;BME280;34005;48.844;10.098;2022-12-18T00:18:44;97734.41;;;-5.63;67.03
48216;BME280;34005;48.844;10.098;2022-12-18T00:21:13;97726.13;;;-5.68;66.82
48216;BME280;34005;48.844;10.098;2022-12-18T00:23:42;97719.50;;;-5.72;67.07
48216;BME280;34005;48.844;10.098;2022-12-18T00:26:12;97724.63;;;-5.74;67.31
48216;BME280;34005;48.844;10.098;2022-12-18T00:28:43;97728.88;;;-5.74;67.16
48216;BME280;34005;48.844;10.098;2022-12-18T00:31:13;97733.13;;;-5.75;67.01
48216;BME280;34005;48.844;10.098;2022-12-18T00:33:40;97730.53;;;-5.73;67.59
48216;BME280;34005;48.844;10.098;2022-12-18T00:36:10;97744.13;;;-5.74;67.22
48216;BME280;34005;48.844;10.098;2022-12-18T00:38:38;97745.88;;;-5.76;67.25
48216;BME280;34005;48.844;10.098;2022-12-18T00:41:07;97737.47;;;-5.78;67.30
48216;BME280;34005;48.844;10.098;2022-12-18T00:43:34;97739.13;;;-5.77;67.19
48216;BME280;34005;48.844;10.098;2022-12-18T00:46:03;97751.06;;;-5.80;67.51
48216;BME280;34005;48.844;10.098;2022-12-18T00:48:32;97745.19;;;-5.82;67.50
48216;BME280;34005;48.844;10.098;2022-12-18T00:50:59;97751.19;;;-5.83;67.02
48216;BME280;34005;48.844;10.098;2022-12-18T00:53:27;97746.13;;;-5.84;67.48
48216;BME280;34005;48.844;10.098;2022-12-18T00:55:54;97743.56;;;-5.83;67.23
48216;BME280;34005;48.844;10.098;2022-12-18T00:58:22;97741.84;;;-5.82;67.40
48216;BME280;34005;48.844;10.098;2022-12-18T01:00:49;97728.25;;;-5.81;67.35
48216;BME280;34005;48.844;10.098;2022-12-18T01:03:18;97739.13;;;-5.77;67.63
48216;BME280;34005;48.844;10.098;2022-12-18T01:05:46;97734.91;;;-5.77;67.38
48216;BME280;34005;48.844;10.098;2022-12-18T01:08:13;97722.22;;;-5.78;67.62
48216;BME280;34005;48.844;10.098;2022-12-18T01:10:41;97722.22;;;-5.78;67.56
48216;BME280;34005;48.844;10.098;2022-12-18T01:13:08;97726.50;;;-5.79;67.39
48216;BME280;34005;48.844;10.098;2022-12-18T01:15:36;97724.03;;;-5.82;67.49
48216;BME280;34005;48.844;10.098;2022-12-18T01:18:04;97725.81;;;-5.84;67.19
48216;BME280;34005;48.844;10.098;2022-12-18T01:20:32;97725.88;;;-5.86;67.27
48216;BME280;34005;48.844;10.098;2022-12-18T01:23:00;97728.47;;;-5.87;67.48
48216;BME280;34005;48.844;10.098;2022-12-18T01:25:27;97725.97;;;-5.89;67.57
48216;BME280;34005;48.844;10.098;2022-12-18T01:27:55;97734.53;;;-5.91;67.91
48216;BME280;34005;48.844;10.098;2022-12-18T01:30:23;97750.66;;;-5.92;67.63
48216;BME280;34005;48.844;10.098;2022-12-18T01:32:50;97754.16;;;-5.95;67.44
48216;BME280;34005;48.844;10.098;2022-12-18T01:35:18;97753.47;;;-6.00;67.60
48216;BME280;34005;48.844;10.098;2022-12-18T01:37:47;97756.28;;;-6.08;67.36
48216;BME280;34005;48.844;10.098;2022-12-18T01:40:14;97766.69;;;-6.15;67.08
48216;BME280;34005;48.844;10.098;2022-12-18T01:42:42;97761.97;;;-6.26;67.62
48216;BME280;34005;48.844;10.098;2022-12-18T01:45:23;97775.00;;;-6.37;67.91
48216;BME280;34005;48.844;10.098;2022-12-18T01:47:53;97777.72;;;-6.43;67.54
48216;BME280;34005;48.844;10.098;2022-12-18T01:50:23;97765.50;;;-6.58;67.85
48216;BME280;34005;48.844;10.098;2022-12-18T01:52:55;97766.81;;;-6.73;68.35
48216;BME280;34005;48.844;10.098;2022-12-18T01:55:26;97777.19;;;-6.81;68.69
48216;BME280;34005;48.844;10.098;2022-12-18T01:57:57;97787.47;;;-6.86;68.84
48216;BME280;34005;48.844;10.098;2022-12-18T02:00:27;97784.28;;;-6.92;68.97
48216;BME280;34005;48.844;10.098;2022-12-18T02:02:55;97776.75;;;-6.95;69.39
48216;BME280;34005;48.844;10.098;2022-12-18T02:05:29;97777.59;;;-6.95;69.53
48216;BME280;34005;48.844;10.098;2022-12-18T02:08:09;97769.25;;;-6.98;69.31
48216;BME280;34005;48.844;10.098;2022-12-18T02:10:45;97776.16;;;-7.03;69.62
48216;BME280;34005;48.844;10.098;2022-12-18T02:13:19;97782.25;;;-7.11;69.77
48216;BME280;34005;48.844;10.098;2022-12-18T02:15:54;97768.78;;;-7.13;69.58
48216;BME280;34005;48.844;10.098;2022-12-18T02:18:24;97763.00;;;-7.16;69.95
48216;BME280;34005;48.844;10.098;2022-12-18T02:20:57;97772.31;;;-7.17;70.27
48216;BME280;34005;48.844;10.098;2022-12-18T02:23:44;97769.06;;;-7.22;70.27
48216;BME280;34005;48.844;10.098;2022-12-18T02:26:21;97767.50;;;-7.26;70.22
48216;BME280;34005;48.844;10.098;2022-12-18T02:28:54;97765.75;;;-7.24;70.24
48216;BME280;34005;48.844;10.098;2022-12-18T02:31:23;97760.59;;;-7.21;70.91
48216;BME280;34005;48.844;10.098;2022-12-18T02:33:56;97756.47;;;-7.23;69.89
48216;BME280;34005;48.844;10.098;2022-12-18T02:36:27;97755.72;;;-7.29;69.96
48216;BME280;34005;48.844;10.098;2022-12-18T02:38:55;97759.09;;;-7.28;70.10
48216;BME280;34005;48.844;10.098;2022-12-18T02:41:26;97750.72;;;-7.30;69.99
48216;BME280;34005;48.844;10.098;2022-12-18T02:43:57;97767.69;;;-7.32;70.03
48216;BME280;34005;48.844;10.098;2022-12-18T02:46:28;97782.97;;;-7.35;69.79
48216;BME280;34005;48.844;10.098;2022-12-18T02:49:03;97785.47;;;-7.34;70.47
48216;BME280;34005;48.844;10.098;2022-12-18T02:51:41;97793.91;;;-7.35;70.23
48216;BME280;34005;48.844;10.098;2022-12-18T02:54:20;97786.38;;;-7.36;69.81
48216;BME280;34005;48.844;10.098;2022-12-18T02:56:54;97785.59;;;-7.38;69.50
48216;BME280;34005;48.844;10.098;2022-12-18T02:59:30;97789.09;;;-7.42;70.53
48216;BME280;34005;48.844;10.098;2022-12-18T03:02:10;97778.16;;;-7.44;70.39
48216;BME280;34005;48.844;10.098;2022-12-18T03:04:46;97778.31;;;-7.51;69.93
48216;BME280;34005;48.844;10.098;2022-12-18T03:07:18;97788.53;;;-7.54;70.39
48216;BME280;34005;48.844;10.098;2022-12-18T03:09:50;97797.84;;;-7.54;70.22
48216;BME280;34005;48.844;10.098;2022-12-18T03:12:24;97802.16;;;-7.58;71.05
48216;BME280;34005;48.844;10.098;2022-12-18T03:14:58;97791.22;;;-7.60;70.74
48216;BME280;34005;48.844;10.098;2022-12-18T03:17:31;97790.34;;;-7.59;70.90
48216;BME280;34005;48.844;10.098;2022-12-18T03:20:03;97795.34;;;-7.56;71.20
48216;BME280;34005;48.844;10.098;2022-12-18T03:22:33;97813.09;;;-7.56;71.36
48216;BME280;34005;48.844;10.098;2022-12-18T03:25:04;97811.25;;;-7.51;71.14
48216;BME280;34005;48.844;10.098;2022-12-18T03:27:37;97811.09;;;-7.44;71.50
48216;BME280;34005;48.844;10.098;2022-12-18T03:30:08;97817.72;;;-7.39;71.42
48216;BME280;34005;48.844;10.098;2022-12-18T03:32:42;97791.44;;;-7.36;70.96
48216;BME280;34005;48.844;10.098;2022-12-18T03:35:11;97791.34;;;-7.33;70.99
48216;BME280;34005;48.844;10.098;2022-12-18T03:37:40;97799.75;;;-7.31;70.98
48216;BME280;34005;48.844;10.098;2022-12-18T03:40:08;97786.22;;;-7.30;70.87
48216;BME280;34005;48.844;10.098;2022-12-18T03:42:43;97777.81;;;-7.32;71.37
48216;BME280;34005;48.844;10.098;2022-12-18T03:45:20;97772.75;;;-7.32;71.77
48216;BME280;34005;48.844;10.098;2022-12-18T03:47:59;97779.47;;;-7.31;71.64
48216;BME280;34005;48.844;10.098;2022-12-18T03:50:36;97777.75;;;-7.31;72.05
48216;BME280;34005;48.844;10.098;2022-12-18T03:53:18;97789.63;;;-7.31;72.11
48216;BME280;34005;48.844;10.098;2022-12-18T03:55:49;97784.44;;;-7.28;72.11
48216;BME280;34005;48.844;10.098;2022-12-18T03:58:22;97784.44;;;-7.28;72.11
48216;BME280;34005;48.844;10.098;2022-12-18T04:00:53;97786.13;;;-7.27;72.20
48216;BME280;34005;48.844;10.098;2022-12-18T04:03:23;97786.91;;;-7.25;72.34
48216;BME280;34005;48.844;10.098;2022-12-18T04:05:54;97777.56;;;-7.23;72.19
48216;BME280;34005;48.844;10.098;2022-12-18T04:08:23;97789.34;;;-7.22;72.69
48216;BME280;34005;48.844;10.098;2022-12-18T04:10:51;97790.97;;;-7.19;72.48
48216;BME280;34005;48.844;10.098;2022-12-18T04:13:23;97797.75;;;-7.20;72.77
48216;BME280;34005;48.844;10.098;2022-12-18T04:15:51;97795.94;;;-7.15;72.98
48216;BME280;34005;48.844;10.098;2022-12-18T04:18:19;97782.25;;;-7.11;72.52
48216;BME280;34005;48.844;10.098;2022-12-18T04:20:46;97786.44;;;-7.08;72.35
48216;BME280;34005;48.844;10.098;2022-12-18T04:23:14;97796.53;;;-7.07;72.69
48216;BME280;34005;48.844;10.098;2022-12-18T04:25:42;97802.38;;;-7.05;72.61
48216;BME280;34005;48.844;10.098;2022-12-18T04:28:09;97793.91;;;-7.03;72.37
48216;BME280;34005;48.844;10.098;2022-12-18T04:30:38;97787.09;;;-7.01;72.40
48216;BME280;34005;48.844;10.098;2022-12-18T04:33:08;97793.75;;;-6.97;72.74
48216;BME280;34005;48.844;10.098;2022-12-18T04:35:36;97795.41;;;-6.96;72.34
48216;BME280;34005;48.844;10.098;2022-12-18T04:38:03;97795.28;;;-6.93;72.77
48216;BME280;34005;48.844;10.098;2022-12-18T04:40:32;97796.00;;;-6.88;72.60
48216;BME280;34005;48.844;10.098;2022-12-18T04:43:01;97802.66;;;-6.84;72.43
48216;BME280;34005;48.844;10.098;2022-12-18T04:45:29;97795.91;;;-6.85;72.18
48216;BME280;34005;48.844;10.098;2022-12-18T04:47:58;97804.44;;;-6.88;72.43
48216;BME280;34005;48.844;10.098;2022-12-18T04:50:26;97807.81;;;-6.87;72.39
48216;BME280;34005;48.844;10.098;2022-12-18T04:52:54;97816.25;;;-6.87;72.81
48216;BME280;34005;48.844;10.098;2022-12-18T04:55:25;97807.78;;;-6.86;72.45
48216;BME280;34005;48.844;10.098;2022-12-18T04:57:53;97812.84;;;-6.86;72.61
48216;BME280;34005;48.844;10.098;2022-12-18T05:00:21;97818.66;;;-6.82;72.83
48216;BME280;34005;48.844;10.098;2022-12-18T05:02:49;97816.88;;;-6.80;72.47
48216;BME280;34005;48.844;10.098;2022-12-18T05:05:18;97810.97;;;-6.79;73.12
48216;BME280;34005;48.844;10.098;2022-12-18T05:07:46;97818.56;;;-6.79;72.85
48216;BME280;34005;48.844;10.098;2022-12-18T05:10:13;97826.97;;;-6.77;72.74
48216;BME280;34005;48.844;10.098;2022-12-18T05:12:41;97810.84;;;-6.76;72.92
48216;BME280;34005;48.844;10.098;2022-12-18T05:15:22;97811.75;;;-6.77;72.80
48216;BME280;34005;48.844;10.098;2022-12-18T05:17:50;97820.31;;;-6.81;72.93
48216;BME280;34005;48.844;10.098;2022-12-18T05:20:19;97812.75;;;-6.82;73.34
48216;BME280;34005;48.844;10.098;2022-12-18T05:22:46;97815.47;;;-6.89;73.12
48216;BME280;34005;48.844;10.098;2022-12-18T05:25:14;97815.50;;;-6.90;73.03
48216;BME280;34005;48.844;10.098;2022-12-18T05:27:42;97823.97;;;-6.91;73.63
48216;BME280;34005;48.844;10.098;2022-12-18T05:30:11;97818.09;;;-6.92;73.61
48216;BME280;34005;48.844;10.098;2022-12-18T05:32:39;97822.34;;;-6.92;73.50
48216;BME280;34005;48.844;10.098;2022-12-18T05:35:09;97820.75;;;-6.96;73.70
48216;BME280;34005;48.844;10.098;2022-12-18T05:37:38;97822.47;;;-6.97;73.90
48216;BME280;34005;48.844;10.098;2022-12-18T05:40:10;97820.78;;;-6.98;73.85
48216;BME280;34005;48.844;10.098;2022-12-18T05:42:38;97817.34;;;-6.95;73.95
48216;BME280;34005;48.844;10.098;2022-12-18T05:45:06;97823.16;;;-6.92;73.88
48216;BME280;34005;48.844;10.098;2022-12-18T05:47:34;97813.00;;;-6.92;73.74
48216;BME280;34005;48.844;10.098;2022-12-18T05:50:02;97817.16;;;-6.89;73.86
48216;BME280;34005;48.844;10.098;2022-12-18T05:52:30;97817.00;;;-6.83;73.53
48216;BME280;34005;48.844;10.098;2022-12-18T05:54:59;97808.53;;;-6.82;72.95
48216;BME280;34005;48.844;10.098;2022-12-18T05:57:26;97810.16;;;-6.81;72.89
48216;BME280;34005;48.844;10.098;2022-12-18T05:59:54;97820.41;;;-6.84;73.05
48216;BME280;34005;48.844;10.098;2022-12-18T06:02:22;97813.69;;;-6.87;73.11
48216;BME280;34005;48.844;10.098;2022-12-18T06:04:49;97824.69;;;-6.86;73.07
48216;BME280;34005;48.844;10.098;2022-12-18T06:07:17;97826.34;;;-6.85;73.44
48216;BME280;34005;48.844;10.098;2022-12-18T06:09:44;97827.09;;;-6.81;73.19
48216;BME280;34005;48.844;10.098;2022-12-18T06:12:13;97829.56;;;-6.80;72.98
48216;BME280;34005;48.844;10.098;2022-12-18T06:14:41;97837.13;;;-6.77;73.13
48216;BME280;34005;48.844;10.098;2022-12-18T06:17:08;97836.22;;;-6.76;73.11
48216;BME280;34005;48.844;10.098;2022-12-18T06:19:36;97829.41;;;-6.74;72.64
48216;BME280;34005;48.844;10.098;2022-12-18T06:22:04;97835.25;;;-6.72;73.24
48216;BME280;34005;48.844;10.098;2022-12-18T06:24:31;97833.50;;;-6.70;72.86
48216;BME280;34005;48.844;10.098;2022-12-18T06:26:59;97843.59;;;-6.67;72.74
48216;BME280;34005;48.844;10.098;2022-12-18T06:29:28;97843.66;;;-6.70;72.66
48216;BME280;34005;48.844;10.098;2022-12-18T06:31:55;97839.38;;;-6.68;72.76
48216;BME280;34005;48.844;10.098;2022-12-18T06:34:23;97848.75;;;-6.70;72.71
48216;BME280;34005;48.844;10.098;2022-12-18T06:36:51;97849.50;;;-6.66;73.11
48216;BME280;34005;48.844;10.098;2022-12-18T06:39:18;97843.59;;;-6.67;72.49
48216;BME280;34005;48.844;10.098;2022-12-18T06:41:46;97839.38;;;-6.68;72.78
48216;BME280;34005;48.844;10.098;2022-12-18T06:44:13;97845.28;;;-6.67;73.32
48216;BME280;34005;48.844;10.098;2022-12-18T06:46:42;97835.84;;;-6.62;73.19
48216;BME280;34005;48.844;10.098;2022-12-18T06:49:10;97839.06;;;-6.57;73.26
48216;BME280;34005;48.844;10.098;2022-12-18T06:51:39;97842.28;;;-6.52;73.41
48216;BME280;34005;48.844;10.098;2022-12-18T06:54:06;97843.16;;;-6.51;72.79
48216;BME280;34005;48.844;10.098;2022-12-18T06:56:34;97828.63;;;-6.48;73.42
48216;BME280;34005;48.844;10.098;2022-12-18T06:59:02;97840.41;;;-6.45;72.83
48216;BME280;34005;48.844;10.098;2022-12-18T07:01:29;97840.47;;;-6.47;73.19
48216;BME280;34005;48.844;10.098;2022-12-18T07:03:58;97853.09;;;-6.45;73.06
48216;BME280;34005;48.844;10.098;2022-12-18T07:06:26;97846.38;;;-6.46;73.16
48216;BME280;34005;48.844;10.098;2022-12-18T07:08:54;97857.31;;;-6.44;73.23
48216;BME280;34005;48.844;10.098;2022-12-18T07:11:22;97865.72;;;-6.42;72.84
48216;BME280;34005;48.844;10.098;2022-12-18T07:13:52;97863.16;;;-6.42;72.99
48216;BME280;34005;48.844;10.098;2022-12-18T07:16:20;97882.59;;;-6.41;73.19
48216;BME280;34005;48.844;10.098;2022-12-18T07:18:51;97874.94;;;-6.39;73.33
48216;BME280;34005;48.844;10.098;2022-12-18T07:21:21;97873.31;;;-6.42;73.21
48216;BME280;34005;48.844;10.098;2022-12-18T07:23:48;97879.31;;;-6.45;73.07
48216;BME280;34005;48.844;10.098;2022-12-18T07:26:18;97876.88;;;-6.48;73.73
48216;BME280;34005;48.844;10.098;2022-12-18T07:28:46;97877.69;;;-6.47;73.69
48216;BME280;34005;48.844;10.098;2022-12-18T07:31:15;97878.47;;;-6.45;73.32
48216;BME280;34005;48.844;10.098;2022-12-18T07:33:44;97891.97;;;-6.43;73.33
48216;BME280;34005;48.844;10.098;2022-12-18T07:36:11;97890.22;;;-6.41;73.96
48216;BME280;34005;48.844;10.098;2022-12-18T07:38:41;97901.97;;;-6.38;73.61
48216;BME280;34005;48.844;10.098;2022-12-18T07:41:11;97892.59;;;-6.36;73.64
48216;BME280;34005;48.844;10.098;2022-12-18T07:43:40;97896.78;;;-6.34;73.74
48216;BME280;34005;48.844;10.098;2022-12-18T07:46:09;97895.06;;;-6.33;73.32
48216;BME280;34005;48.844;10.098;2022-12-18T07:48:43;97909.41;;;-6.32;73.47
48216;BME280;34005;48.844;10.098;2022-12-18T07:51:16;97906.06;;;-6.33;73.83
48216;BME280;34005;48.844;10.098;2022-12-18T07:53:45;97912.84;;;-6.33;73.89
48216;BME280;34005;48.844;10.098;2022-12-18T07:56:18;97911.91;;;-6.31;73.75
48216;BME280;34005;48.844;10.098;2022-12-18T07:58:55;97908.56;;;-6.31;73.48
48216;BME280;34005;48.844;10.098;2022-12-18T08:01:23;97898.41;;;-6.31;73.51
48216;BME280;34005;48.844;10.098;2022-12-18T08:03:51;97899.19;;;-6.29;73.61
48216;BME280;34005;48.844;10.098;2022-12-18T08:06:19;97893.25;;;-6.30;73.61
48216;BME280;34005;48.844;10.098;2022-12-18T08:08:52;97894.94;;;-6.29;73.96
48216;BME280;34005;48.844;10.098;2022-12-18T08:11:20;97893.19;;;-6.27;74.30
48216;BME280;34005;48.844;10.098;2022-12-18T08:13:48;97899.03;;;-6.25;74.12
48216;BME280;34005;48.844;10.098;2022-12-18T08:16:15;97896.50;;;-6.25;73.79
48216;BME280;34005;48.844;10.098;2022-12-18T08:18:44;97894.78;;;-6.24;74.17
48216;BME280;34005;48.844;10.098;2022-12-18T08:21:14;97899.84;;;-6.23;74.27
48216;BME280;34005;48.844;10.098;2022-12-18T08:23:42;97887.91;;;-6.20;74.14
48216;BME280;34005;48.844;10.098;2022-12-18T08:26:13;97890.34;;;-6.17;73.80
48216;BME280;34005;48.844;10.098;2022-12-18T08:28:41;97884.31;;;-6.13;73.96
48216;BME280;34005;48.844;10.098;2022-12-18T08:31:10;97890.97;;;-6.09;73.99
48216;BME280;34005;48.844;10.098;2022-12-18T08:33:38;97871.41;;;-6.07;74.10
48216;BME280;34005;48.844;10.098;2022-12-18T08:36:08;97877.19;;;-6.02;73.80
48216;BME280;34005;48.844;10.098;2022-12-18T08:38:36;97886.38;;;-5.98;73.98
48216;BME280;34005;48.844;10.098;2022-12-18T08:41:06;97881.94;;;-5.93;73.89
48216;BME280;34005;48.844;10.098;2022-12-18T08:43:36;97890.25;;;-5.88;73.67
48216;BME280;34005;48.844;10.098;2022-12-18T08:46:23;97887.63;;;-5.85;73.89
48216;BME280;34005;48.844;10.098;2022-12-18T08:48:52;97891.75;;;-5.82;73.65
48216;BME280;34005;48.844;10.098;2022-12-18T08:51:19;97907.78;;;-5.80;73.34
48216;BME280;34005;48.844;10.098;2022-12-18T08:53:47;97910.16;;;-5.74;73.64
48216;BME280;34005;48.844;10.098;2022-12-18T08:56:15;97917.78;;;-5.74;73.46
48216;BME280;34005;48.844;10.098;2022-12-18T08:58:44;97906.78;;;-5.74;73.38
48216;BME280;34005;48.844;10.098;2022-12-18T09:01:12;97907.66;;;-5.75;73.24
48216;BME280;34005;48.844;10.098;2022-12-18T09:03:40;97906.78;;;-5.74;73.66
48216;BME280;34005;48.844;10.098;2022-12-18T09:06:13;97902.41;;;-5.71;73.66
48216;BME280;34005;48.844;10.098;2022-12-18T09:08:42;97905.69;;;-5.67;73.32
48216;BME280;34005;48.844;10.098;2022-12-18T09:11:14;97901.41;;;-5.65;73.37
48216;BME280;34005;48.844;10.098;2022-12-18T09:13:43;97897.88;;;-5.61;72.99
48216;BME280;34005;48.844;10.098;2022-12-18T09:16:11;97890.25;;;-5.61;72.96
48216;BME280;34005;48.844;10.098;2022-12-18T09:18:39;97888.56;;;-5.62;72.83
48216;BME280;34005;48.844;10.098;2022-12-18T09:21:09;97876.81;;;-5.65;73.18
48216;BME280;34005;48.844;10.098;2022-12-18T09:23:37;97874.34;;;-5.66;73.05
48216;BME280;34005;48.844;10.098;2022-12-18T09:26:04;97881.97;;;-5.66;73.05
48216;BME280;34005;48.844;10.098;2022-12-18T09:28:32;97891.22;;;-5.65;73.11
48216;BME280;34005;48.844;10.098;2022-12-18T09:31:05;97878.47;;;-5.64;73.03
48216;BME280;34005;48.844;10.098;2022-12-18T09:33:34;97880.13;;;-5.63;72.83
48216;BME280;34005;48.844;10.098;2022-12-18T09:36:03;97875.78;;;-5.59;73.02
48216;BME280;34005;48.844;10.098;2022-12-18T09:38:31;97881.50;;;-5.52;72.89
48216;BME280;34005;48.844;10.098;2022-12-18T09:41:00;97862.59;;;-5.45;73.00
48216;BME280;34005;48.844;10.098;2022-12-18T09:43:34;97862.41;;;-5.39;73.00
48216;BME280;34005;48.844;10.098;2022-12-18T09:46:08;97865.59;;;-5.34;72.82
48216;BME280;34005;48.844;10.098;2022-12-18T09:48:40;97856.16;;;-5.30;72.74
48216;BME280;34005;48.844;10.098;2022-12-18T09:51:13;97847.63;;;-5.29;72.75
48216;BME280;34005;48.844;10.098;2022-12-18T09:53:45;97868.78;;;-5.27;72.45
48216;BME280;34005;48.844;10.098;2022-12-18T09:56:17;97877.03;;;-5.21;72.59
48216;BME280;34005;48.844;10.098;2022-12-18T09:58:54;97873.41;;;-5.13;72.38
48216;BME280;34005;48.844;10.098;2022-12-18T10:01:25;97875.88;;;-5.12;71.89
48216;BME280;34005;48.844;10.098;2022-12-18T10:04:08;97879.19;;;-5.10;72.03
48216;BME280;34005;48.844;10.098;2022-12-18T10:06:40;97880.66;;;-5.03;72.11
48216;BME280;34005;48.844;10.098;2022-12-18T10:09:16;97888.94;;;-4.98;72.43
48216;BME280;34005;48.844;10.098;2022-12-18T10:11:51;97887.75;;;-4.87;72.04
48216;BME280;34005;48.844;10.098;2022-12-18T10:14:27;97882.31;;;-4.78;71.91
48216;BME280;34005;48.844;10.098;2022-12-18T10:17:04;97882.03;;;-4.70;71.63
48216;BME280;34005;48.844;10.098;2022-12-18T10:19:39;97881.72;;;-4.61;71.67
48216;BME280;34005;48.844;10.098;2022-12-18T10:22:23;97883.97;;;-4.53;70.84
48216;BME280;34005;48.844;10.098;2022-12-18T10:24:58;97876.97;;;-4.48;71.36
48216;BME280;34005;48.844;10.098;2022-12-18T10:27:27;97879.25;;;-4.41;70.92
48216;BME280;34005;48.844;10.098;2022-12-18T10:29:56;97869.84;;;-4.39;70.99
48216;BME280;34005;48.844;10.098;2022-12-18T10:32:27;97874.75;;;-4.34;71.06
48216;BME280;34005;48.844;10.098;2022-12-18T10:34:57;97874.41;;;-4.25;70.85
48216;BME280;34005;48.844;10.098;2022-12-18T10:37:28;97879.41;;;-4.22;70.62
48216;BME280;34005;48.844;10.098;2022-12-18T10:40:08;97872.41;;;-4.17;70.56
48216;BME280;34005;48.844;10.098;2022-12-18T10:42:41;97866.25;;;-4.11;70.57
48216;BME280;34005;48.844;10.098;2022-12-18T10:45:13;97869.47;;;-4.07;70.47
48216;BME280;34005;48.844;10.098;2022-12-18T10:47:44;97868.34;;;-4.00;70.29
48216;BME280;34005;48.844;10.098;2022-12-18T10:50:19;97871.66;;;-3.98;69.83
48216;BME280;34005;48.844;10.098;2022-12-18T10:52:58;97881.09;;;-4.00;70.11
48216;BME280;34005;48.844;10.098;2022-12-18T10:55:31;97878.44;;;-3.97;70.01
48216;BME280;34005;48.844;10.098;2022-12-18T10:58:16;97877.34;;;-3.91;69.45
48216;BME280;34005;48.844;10.098;2022-12-18T11:01:05;97874.66;;;-3.87;69.69
48216;BME280;34005;48.844;10.098;2022-12-18T11:03:35;97877.59;;;-3.76;70.00
48216;BME280;34005;48.844;10.098;2022-12-18T11:06:06;97875.44;;;-3.64;69.71
48216;BME280;34005;48.844;10.098;2022-12-18T11:08:34;97874.41;;;-3.60;69.33
48216;BME280;34005;48.844;10.098;2022-12-18T11:11:02;97876.84;;;-3.57;69.30
48216;BME280;34005;48.844;10.098;2022-12-18T11:13:31;97869.94;;;-3.55;68.98
48216;BME280;34005;48.844;10.098;2022-12-18T11:15:59;97880.28;;;-3.58;68.95
48216;BME280;34005;48.844;10.098;2022-12-18T11:18:28;97879.28;;;-3.54;69.21
48216;BME280;34005;48.844;10.098;2022-12-18T11:20:59;97872.13;;;-3.46;69.20
48216;BME280;34005;48.844;10.098;2022-12-18T11:23:33;97873.47;;;-3.37;68.89
48216;BME280;34005;48.844;10.098;2022-12-18T11:26:04;97875.69;;;-3.29;68.92
48216;BME280;34005;48.844;10.098;2022-12-18T11:28:38;97871.84;;;-3.19;68.84
48216;BME280;34005;48.844;10.098;2022-12-18T11:31:23;97877.41;;;-3.09;68.31
48216;BME280;34005;48.844;10.098;2022-12-18T11:34:01;97876.19;;;-3.01;68.47
48216;BME280;34005;48.844;10.098;2022-12-18T11:36:52;97873.56;;;-2.99;68.25
48216;BME280;34005;48.844;10.098;2022-12-18T11:39:26;97861.47;;;-2.96;68.31
48216;BME280;34005;48.844;10.098;2022-12-18T11:41:58;97865.72;;;-2.95;68.17
48216;BME280;34005;48.844;10.098;2022-12-18T11:44:41;97853.06;;;-2.98;67.80
48216;BME280;34005;48.844;10.098;2022-12-18T11:47:15;97847.19;;;-3.00;67.72
48216;BME280;34005;48.844;10.098;2022-12-18T11:49:49;97838.09;;;-3.05;67.85
48216;BME280;34005;48.844;10.098;2022-12-18T11:52:21;97839.19;;;-3.11;67.74
48216;BME280;34005;48.844;10.098;2022-12-18T11:54:51;97839.19;;;-3.11;68.22
48216;BME280;34005;48.844;10.098;2022-12-18T11:57:29;97843.97;;;-3.03;68.07
48216;BME280;34005;48.844;10.098;2022-12-18T12:00:04;97845.19;;;-2.93;68.38
48216;BME280;34005;48.844;10.098;2022-12-18T12:02:53;97837.84;;;-2.80;67.95
48216;BME280;34005;48.844;10.098;2022-12-18T12:05:39;97839.16;;;-2.72;67.87
48216;BME280;34005;48.844;10.098;2022-12-18T12:08:17;97836.25;;;-2.64;67.61
48216;BME280;34005;48.844;10.098;2022-12-18T12:10:56;97827.47;;;-2.58;67.40
48216;BME280;34005;48.844;10.098;2022-12-18T12:13:40;97826.53;;;-2.56;67.06
48216;BME280;34005;48.844;10.098;2022-12-18T12:16:17;97827.63;;;-2.61;66.74
48216;BME280;34005;48.844;10.098;2022-12-18T12:18:56;97828.88;;;-2.70;66.76
48216;BME280;34005;48.844;10.098;2022-12-18T12:21:35;97824.94;;;-2.77;67.43
48216;BME280;34005;48.844;10.098;2022-12-18T12:24:21;97815.75;;;-2.81;67.15
48216;BME280;34005;48.844;10.098;2022-12-18T12:26:59;97806.72;;;-2.88;67.40
48216;BME280;34005;48.844;10.098;2022-12-18T12:29:42;97808.72;;;-2.95;67.29
48216;BME280;34005;48.844;10.098;2022-12-18T12:32:22;97808.03;;;-2.99;67.51
48216;BME280;34005;48.844;10.098;2022-12-18T12:35:05;97808.13;;;-3.02;67.60
48216;BME280;34005;48.844;10.098;2022-12-18T12:37:42;97798.06;;;-3.05;67.69
48216;BME280;34005;48.844;10.098;2022-12-18T12:40:20;97811.88;;;-3.09;67.69
48216;BME280;34005;48.844;10.098;2022-12-18T12:43:31;97807.88;;;-3.15;67.46
48216;BME280;34005;48.844;10.098;2022-12-18T12:46:03;97800.53;;;-3.22;68.34
48216;BME280;34005;48.844;10.098;2022-12-18T12:48:39;97805.78;;;-3.25;68.53
48216;BME280;34005;48.844;10.098;2022-12-18T12:51:13;97804.94;;;-3.26;68.78
48216;BME280;34005;48.844;10.098;2022-12-18T12:53:43;97798.91;;;-3.23;68.87
48216;BME280;34005;48.844;10.098;2022-12-18T12:56:15;97801.16;;;-3.17;68.38
48216;BME280;34005;48.844;10.098;2022-12-18T12:58:51;97801.91;;;-3.15;68.42
48216;BME280;34005;48.844;10.098;2022-12-18T13:01:28;97800.28;;;-3.16;68.49
48216;BME280;34005;48.844;10.098;2022-12-18T13:04:06;97805.38;;;-3.16;68.85
48216;BME280;34005;48.844;10.098;2022-12-18T13:06:43;97806.13;;;-3.14;68.51
48216;BME280;34005;48.844;10.098;2022-12-18T13:09:13;97812.88;;;-3.13;68.90
48216;BME280;34005;48.844;10.098;2022-12-18T13:11:43;97808.69;;;-3.14;68.54